Terminal Aerodrome Forecast
Issued by NWS

Home | Current Version | Previous Version | Text Only | Print | Product List | Glossary On
Versions: 1 2 3 4 5 6 7 8 9 10 11 12 13 14 15 16 17
275
FTUS43 KJKL 212320
TAFSME
TAF
KSME 212320Z 2200/2224 28005KT P6SM SCT120
     FM220700 32006KT P6SM BKN040
     FM221200 36004KT P6SM SCT070 SCT200=

USA.gov is the U.S. government's official web portal to all federal, state and local government web resources and services.